createdAt,value
2022-09-14T00:01:45.706Z,100523.56
2022-09-14T00:04:16.991Z,100550.97
2022-09-14T00:06:46.169Z,100555.13
2022-09-14T00:09:16.879Z,100574.81
2022-09-14T00:11:45.447Z,100572.91
2022-09-14T00:14:13.973Z,100571.00
2022-09-14T00:16:43.700Z,100573.75
2022-09-14T00:19:18.657Z,100577.53
2022-09-14T00:21:47.350Z,100571.75
2022-09-14T00:24:15.637Z,100572.81
2022-09-14T00:26:43.850Z,100572.81
2022-09-14T00:29:12.401Z,100585.03
2022-09-14T00:31:41.641Z,100593.22
2022-09-14T00:34:13.544Z,100586.91
2022-09-14T00:36:46.436Z,100588.00
2022-09-14T00:39:15.459Z,100575.19
2022-09-14T00:41:45.208Z,100541.34
2022-09-14T00:44:46.812Z,100567.69
2022-09-14T00:47:16.954Z,100511.03
2022-09-14T00:49:46.576Z,100531.97
2022-09-14T00:52:21.478Z,100541.34
2022-09-14T00:54:52.572Z,100536.81
2022-09-14T00:57:21.545Z,100519.16
2022-09-14T00:59:52.923Z,100514.53
2022-09-14T01:02:24.741Z,100526.50
2022-09-14T01:04:53.813Z,100513.09
2022-09-14T01:07:38.387Z,100509.78
2022-09-14T01:10:20.752Z,100509.97
2022-09-14T01:13:03.008Z,100510.59
2022-09-14T01:15:40.189Z,100505.97
2022-09-14T01:18:16.956Z,100494.22
2022-09-14T01:20:48.710Z,100475.97
2022-09-14T01:23:22.201Z,100465.91
2022-09-14T01:26:21.395Z,100453.75
2022-09-14T01:28:55.945Z,100453.16
2022-09-14T01:31:32.256Z,100424.09
2022-09-14T01:34:10.094Z,100461.34
2022-09-14T01:36:41.628Z,100472.47
2022-09-14T01:39:11.553Z,100486.72
2022-09-14T01:41:42.371Z,100482.09
2022-09-14T01:44:17.804Z,100482.69
2022-09-14T01:46:48.646Z,100458.03
2022-09-14T01:49:20.263Z,100481.66
2022-09-14T01:51:51.475Z,100489.59
2022-09-14T01:54:24.570Z,100506.81
2022-09-14T01:56:56.825Z,100502.41
2022-09-14T01:59:29.623Z,100505.34
2022-09-14T02:02:02.821Z,100496.34
2022-09-14T02:04:38.721Z,100492.78
2022-09-14T02:07:07.733Z,100488.38
2022-09-14T02:09:36.061Z,100497.41
2022-09-14T02:12:04.816Z,100506.41
2022-09-14T02:14:34.573Z,100502.25
2022-09-14T02:17:03.500Z,100509.13
2022-09-14T02:19:36.762Z,100513.53
2022-09-14T02:22:05.504Z,100510.81
2022-09-14T02:24:33.985Z,100506.81
2022-09-14T02:27:03.479Z,100492.03
2022-09-14T02:29:32.604Z,100507.03
2022-09-14T02:32:12.600Z,100497.41
2022-09-14T02:34:53.273Z,100496.19
2022-09-14T02:37:31.591Z,100498.09
2022-09-14T02:40:07.482Z,100509.00
2022-09-14T02:42:40.982Z,100513.16
2022-09-14T02:45:19.438Z,100514.00
2022-09-14T02:47:56.481Z,100498.47
2022-09-14T02:50:32.458Z,100489.22
2022-09-14T02:53:06.362Z,100497.41
2022-09-14T02:55:39.409Z,100473.31
2022-09-14T02:58:09.888Z,100476.75
2022-09-14T03:00:40.425Z,100489.31
2022-09-14T03:03:12.725Z,100498.91
2022-09-14T03:05:41.485Z,100506.63
2022-09-14T03:08:11.803Z,100499.75
2022-09-14T03:10:42.916Z,100519.84
2022-09-14T03:13:11.775Z,100516.06
2022-09-14T03:15:40.526Z,100509.78
2022-09-14T03:18:14.261Z,100493.00
2022-09-14T03:20:43.643Z,100463.69
2022-09-14T03:23:13.015Z,100458.47
2022-09-14T03:25:43.373Z,100413.06
2022-09-14T03:28:12.946Z,100417.09
2022-09-14T03:30:41.227Z,100425.50
2022-09-14T03:33:10.989Z,100404.88
2022-09-14T03:35:40.225Z,100368.63
2022-09-14T03:38:08.676Z,100362.81
2022-09-14T03:40:36.936Z,100380.22
2022-09-14T03:43:05.326Z,100387.56
2022-09-14T03:45:33.526Z,100387.81
2022-09-14T03:48:01.752Z,100404.16
2022-09-14T03:50:31.384Z,100410.66
2022-09-14T03:52:59.705Z,100397.16
2022-09-14T03:55:27.971Z,100376.63
2022-09-14T03:57:57.003Z,100394.09
2022-09-14T04:00:25.356Z,100379.19
2022-09-14T04:02:53.668Z,100395.84
2022-09-14T04:05:22.209Z,100414.09
2022-09-14T04:07:51.960Z,100468.59
2022-09-14T04:10:20.224Z,100496.91
2022-09-14T04:12:48.715Z,100493.81
2022-09-14T04:15:16.937Z,100497.13
2022-09-14T04:17:45.303Z,100502.09
2022-09-14T04:20:13.735Z,100468.81
2022-09-14T04:22:42.090Z,100427.16
2022-09-14T04:25:11.762Z,100377.03
2022-09-14T04:27:40.162Z,100367.25
2022-09-14T04:30:09.212Z,100365.88
2022-09-14T04:32:37.478Z,100380.91
2022-09-14T04:35:06.228Z,100394.13
2022-09-14T04:37:34.734Z,100395.38
2022-09-14T04:40:03.412Z,100402.53
2022-09-14T04:42:33.119Z,100393.81
2022-09-14T04:45:01.436Z,100381.41
2022-09-14T04:47:30.127Z,100388.28
2022-09-14T04:49:58.540Z,100366.50
2022-09-14T04:52:26.747Z,100354.94
2022-09-14T04:54:54.981Z,100361.13
2022-09-14T04:57:23.264Z,100344.19
2022-09-14T04:59:52.910Z,100350.41
2022-09-14T05:02:21.278Z,100346.84
2022-09-14T05:04:50.161Z,100335.59
2022-09-14T05:07:18.404Z,100318.47
2022-09-14T05:09:46.688Z,100317.00
2022-09-14T05:12:14.876Z,100333.50
2022-09-14T05:14:43.144Z,100337.44
2022-09-14T05:17:12.746Z,100352.22
2022-09-14T05:19:41.040Z,100344.47
2022-09-14T05:22:09.345Z,100337.38
2022-09-14T05:24:37.609Z,100354.66
2022-09-14T05:27:05.889Z,100350.06
2022-09-14T05:29:34.104Z,100348.19
2022-09-14T05:32:02.308Z,100347.56
2022-09-14T05:34:32.003Z,100359.28
2022-09-14T05:37:00.207Z,100379.59
2022-09-14T05:39:28.505Z,100380.75
2022-09-14T05:41:56.681Z,100385.75
2022-09-14T05:44:24.968Z,100396.03
2022-09-14T05:46:53.304Z,100400.41
2022-09-14T05:49:21.609Z,100401.22
2022-09-14T05:51:51.178Z,100404.78
2022-09-14T05:54:19.652Z,100413.16
2022-09-14T05:56:48.332Z,100405.22
2022-09-14T05:59:16.787Z,100406.88
2022-09-14T06:01:45.031Z,100402.69
2022-09-14T06:04:14.312Z,100407.44
2022-09-14T06:06:49.341Z,100377.81
2022-09-14T06:09:33.290Z,100399.69
2022-09-14T06:12:01.658Z,100392.78
2022-09-14T06:14:29.873Z,100387.75
2022-09-14T06:17:00.933Z,100374.91
2022-09-14T06:19:29.215Z,100377.41
2022-09-14T06:21:57.404Z,100386.38
2022-09-14T06:24:25.708Z,100396.81
2022-09-14T06:26:55.276Z,100414.19
2022-09-14T06:29:23.689Z,100402.69
2022-09-14T06:31:51.949Z,100399.41
2022-09-14T06:34:20.402Z,100380.81
2022-09-14T06:36:49.058Z,100390.63
2022-09-14T06:39:17.740Z,100379.97
2022-09-14T06:41:46.233Z,100380.34
2022-09-14T06:44:21.882Z,100376.81
2022-09-14T06:46:50.097Z,100375.38
2022-09-14T06:49:20.885Z,100379.38
2022-09-14T06:51:49.252Z,100378.31
2022-09-14T06:54:19.779Z,100380.59
2022-09-14T06:56:48.603Z,100389.34
2022-09-14T06:59:18.382Z,100385.78
2022-09-14T07:01:49.408Z,100379.31
2022-09-14T07:04:17.980Z,100393.97
2022-09-14T07:06:48.907Z,100342.25
2022-09-14T07:09:19.018Z,100221.00
2022-09-14T07:11:47.716Z,100387.81
2022-09-14T07:14:16.764Z,100389.69
2022-09-14T07:16:44.992Z,100390.75
2022-09-14T07:19:16.364Z,100399.97
2022-09-14T07:21:44.878Z,100393.47
2022-09-14T07:24:15.025Z,100389.69
2022-09-14T07:26:43.990Z,100374.69
2022-09-14T07:29:14.761Z,100381.41
2022-09-14T07:31:44.941Z,100398.34
2022-09-14T07:34:15.457Z,100396.19
2022-09-14T07:36:44.123Z,100398.91
2022-09-14T07:39:15.349Z,100383.22
2022-09-14T07:41:44.612Z,100390.91
2022-09-14T07:44:15.903Z,100390.25
2022-09-14T07:46:46.064Z,100393.34
2022-09-14T07:49:16.528Z,100405.28
2022-09-14T07:51:45.544Z,100413.91
2022-09-14T07:54:16.455Z,100406.34
2022-09-14T07:56:45.600Z,100414.94
2022-09-14T08:02:04.017Z,100419.94
2022-09-14T08:04:33.604Z,100418.28
2022-09-14T08:07:02.148Z,100398.00
2022-09-14T08:09:30.805Z,100408.91
2022-09-14T08:11:59.225Z,100412.16
2022-09-14T08:14:27.404Z,100428.22
2022-09-14T08:16:55.729Z,100423.72
2022-09-14T08:19:24.906Z,100425.16
2022-09-14T08:21:55.560Z,100426.00
2022-09-14T08:24:23.835Z,100430.56
2022-09-14T08:26:52.547Z,100438.88
2022-09-14T08:29:21.260Z,100449.72
2022-09-14T08:31:51.745Z,100454.31
2022-09-14T08:34:21.102Z,100456.22
2022-09-14T08:36:49.307Z,100463.53
2022-09-14T08:39:19.385Z,100461.88
2022-09-14T08:41:52.820Z,100464.00
2022-09-14T08:44:27.191Z,100460.66
2022-09-14T08:47:00.509Z,100455.66
2022-09-14T08:49:43.973Z,100465.50
2022-09-14T08:52:22.242Z,100431.75
2022-09-14T08:54:55.813Z,100469.28
2022-09-14T08:57:30.934Z,100475.56
2022-09-14T09:00:06.686Z,100470.94
2022-09-14T09:02:49.669Z,100439.09
2022-09-14T09:05:31.119Z,100443.47
2022-09-14T09:08:04.239Z,100479.03
2022-09-14T09:10:35.012Z,100490.31
2022-09-14T09:13:06.993Z,100473.06
2022-09-14T09:15:41.317Z,100483.19
2022-09-14T09:18:13.868Z,100486.16
2022-09-14T09:20:46.184Z,100489.09
2022-09-14T09:23:16.858Z,100492.44
2022-09-14T09:25:55.342Z,100501.81
2022-09-14T09:28:24.974Z,100501.81
2022-09-14T09:30:54.099Z,100498.81
2022-09-14T09:33:29.588Z,100499.44
2022-09-14T09:36:18.785Z,100498.75
2022-09-14T09:38:47.080Z,100485.31
2022-09-14T09:41:20.886Z,100483.19
2022-09-14T09:44:00.553Z,100478.81
2022-09-14T09:46:30.305Z,100471.91
2022-09-14T09:48:59.588Z,100457.69
2022-09-14T09:51:30.739Z,100458.91
2022-09-14T09:54:03.527Z,100463.06
2022-09-14T09:56:36.997Z,100469.97
2022-09-14T09:59:22.037Z,100462.84
2022-09-14T10:01:50.348Z,100467.69
2022-09-14T10:04:21.393Z,100464.28
2022-09-14T10:06:51.619Z,100458.84
2022-09-14T10:09:23.672Z,100464.56
2022-09-14T10:12:00.791Z,100451.00
2022-09-14T10:14:32.579Z,100442.91
2022-09-14T10:17:09.443Z,100453.47
2022-09-14T10:19:38.226Z,100466.31
2022-09-14T10:22:25.729Z,100455.94
2022-09-14T10:24:57.722Z,100450.13
2022-09-14T10:27:41.036Z,100437.84
2022-09-14T10:30:21.011Z,100442.00
2022-09-14T10:32:56.493Z,100422.53
2022-09-14T10:35:34.080Z,100430.84
2022-09-14T10:38:16.100Z,100444.25
2022-09-14T10:40:50.293Z,100444.38
2022-09-14T10:43:27.304Z,100439.69
2022-09-14T10:46:02.184Z,100426.19
2022-09-14T10:48:54.444Z,100389.13
2022-09-14T10:51:46.594Z,100428.53
2022-09-14T10:54:34.484Z,100431.97
2022-09-14T10:57:15.172Z,100399.94
2022-09-14T10:59:52.984Z,100417.81
2022-09-14T11:03:05.869Z,100404.25
2022-09-14T11:05:39.324Z,100391.44
2022-09-14T11:08:22.950Z,100396.34
2022-09-14T11:11:10.679Z,100417.69
2022-09-14T11:13:52.235Z,100410.19
2022-09-14T11:16:31.695Z,100408.28
2022-09-14T11:19:08.026Z,100418.75
2022-09-14T11:21:45.201Z,100414.09
2022-09-14T11:24:21.441Z,100408.47
2022-09-14T11:27:00.618Z,100402.09
2022-09-14T11:29:33.631Z,100415.94
2022-09-14T11:32:20.831Z,100408.13
2022-09-14T11:34:56.236Z,100356.94
2022-09-14T11:37:33.988Z,100389.50
2022-09-14T11:40:10.313Z,100384.84
2022-09-14T11:42:45.236Z,100388.16
2022-09-14T11:45:22.200Z,100381.09
2022-09-14T11:47:59.738Z,100378.47
2022-09-14T11:50:32.873Z,100377.97
2022-09-14T11:53:11.143Z,100375.31
2022-09-14T11:55:43.947Z,100388.75
2022-09-14T11:58:19.921Z,100379.03
2022-09-14T12:01:05.089Z,100373.16
2022-09-14T12:04:10.086Z,100369.16
2022-09-14T12:07:05.479Z,100376.94
2022-09-14T12:09:53.732Z,100385.19
2022-09-14T12:12:40.069Z,100376.97
2022-09-14T12:15:22.885Z,100367.69
2022-09-14T12:17:52.662Z,100357.31
2022-09-14T12:20:44.175Z,100357.38
2022-09-14T12:23:27.080Z,100357.06
2022-09-14T12:26:01.034Z,100353.16
2022-09-14T12:28:47.901Z,100354.75
2022-09-14T12:31:37.109Z,100359.41
2022-09-14T12:34:27.181Z,100351.97
2022-09-14T12:37:28.372Z,100370.25
2022-09-14T12:40:36.341Z,100356.22
2022-09-14T12:43:48.474Z,100362.84
2022-09-14T12:46:42.238Z,100374.72
2022-09-14T12:49:37.256Z,100374.72
2022-09-14T12:52:35.899Z,100368.59
2022-09-14T12:55:20.928Z,100364.44
2022-09-14T12:57:54.612Z,100359.53
2022-09-14T13:00:23.121Z,100371.41
2022-09-14T13:03:27.012Z,100379.09
2022-09-14T13:05:55.567Z,100375.03
2022-09-14T13:08:25.620Z,100381.88
2022-09-14T13:10:54.181Z,100376.16
2022-09-14T13:13:26.954Z,100378.56
2022-09-14T13:15:59.269Z,100368.09
2022-09-14T13:18:34.771Z,100365.84
2022-09-14T13:21:05.458Z,100350.81
2022-09-14T13:23:39.088Z,100348.91
2022-09-14T13:26:13.054Z,100348.41
2022-09-14T13:28:44.399Z,100303.47
2022-09-14T13:31:15.798Z,100355.06
2022-09-14T13:33:51.182Z,100341.94
2022-09-14T13:36:21.896Z,100344.03
2022-09-14T13:38:50.661Z,100331.81
2022-09-14T13:41:23.018Z,100325.88
2022-09-14T13:43:55.522Z,100309.88
2022-09-14T13:46:25.438Z,100337.34
2022-09-14T13:48:56.028Z,100333.22
2022-09-14T13:51:27.289Z,100311.56
2022-09-14T13:53:57.850Z,100345.44
2022-09-14T13:56:31.579Z,100336.13
2022-09-14T13:59:21.698Z,100325.31
2022-09-14T14:01:57.145Z,100321.94
2022-09-14T14:04:35.219Z,100317.31
2022-09-14T14:07:08.532Z,100314.56
2022-09-14T14:09:46.222Z,100321.13
2022-09-14T14:12:24.847Z,100260.75
2022-09-14T14:14:57.961Z,100311.50
2022-09-14T14:17:34.618Z,100302.47
2022-09-14T14:20:31.864Z,100299.47
2022-09-14T14:23:02.996Z,100294.25
2022-09-14T14:25:33.613Z,100262.75
2022-09-14T14:28:03.689Z,100298.88
2022-09-14T14:30:34.994Z,100299.13
2022-09-14T14:33:03.377Z,100304.53
2022-09-14T14:35:33.009Z,100308.59
2022-09-14T14:38:01.346Z,100286.31
2022-09-14T14:40:30.105Z,100297.41
2022-09-14T14:42:59.637Z,100283.72
2022-09-14T14:45:28.882Z,100288.03
2022-09-14T14:48:00.075Z,100270.22
2022-09-14T14:50:30.312Z,100198.50
2022-09-14T14:53:00.928Z,100229.81
2022-09-14T14:55:31.939Z,100223.66
2022-09-14T14:58:03.207Z,100182.84
2022-09-14T15:00:33.838Z,100207.03
2022-09-14T15:03:02.482Z,100185.00
2022-09-14T15:05:31.208Z,100195.94
2022-09-14T15:08:01.034Z,100198.94
2022-09-14T15:10:30.702Z,100197.53
2022-09-14T15:12:58.990Z,100201.03
2022-09-14T15:15:27.768Z,100169.22
2022-09-14T15:17:56.191Z,100206.94
2022-09-14T15:20:24.496Z,100210.78
2022-09-14T15:22:53.251Z,100200.00
2022-09-14T15:25:23.515Z,100198.78
2022-09-14T15:27:51.700Z,100194.88
2022-09-14T15:30:20.029Z,100179.53
2022-09-14T15:32:48.690Z,100196.88
2022-09-14T15:35:17.209Z,100205.34
2022-09-14T15:37:45.525Z,100220.81
2022-09-14T15:40:14.134Z,100218.09
2022-09-14T15:42:43.815Z,100188.03
2022-09-14T15:45:13.775Z,100176.00
2022-09-14T15:47:43.888Z,100170.56
2022-09-14T15:50:12.794Z,100188.59
2022-09-14T15:52:41.581Z,100186.44
2022-09-14T15:55:12.237Z,100168.66
2022-09-14T15:57:40.795Z,100158.53
2022-09-14T16:00:13.808Z,100145.47
2022-09-14T16:02:42.377Z,100151.50
2022-09-14T16:05:11.094Z,100153.41
2022-09-14T16:07:39.465Z,100157.53
2022-09-14T16:10:08.909Z,100149.84
2022-09-14T16:12:37.150Z,100144.38
2022-09-14T16:15:05.879Z,100147.09
2022-09-14T16:17:35.468Z,100138.41
2022-09-14T16:20:04.868Z,100133.56
2022-09-14T16:22:33.776Z,100125.56
2022-09-14T16:25:02.038Z,100106.94
2022-09-14T16:27:30.445Z,100108.03
2022-09-14T16:29:58.718Z,100114.31
2022-09-14T16:32:27.614Z,100120.88
2022-09-14T16:34:57.289Z,100127.97
2022-09-14T16:37:26.776Z,100139.75
2022-09-14T16:39:55.306Z,100120.28
2022-09-14T16:42:23.700Z,100118.63
2022-09-14T16:44:51.982Z,100103.88
2022-09-14T16:47:20.253Z,100112.09
2022-09-14T16:49:48.477Z,100100.81
2022-09-14T16:52:18.074Z,100106.53
2022-09-14T16:54:46.232Z,100111.75
2022-09-14T16:57:14.442Z,100116.66
2022-09-14T16:59:42.824Z,100119.38
2022-09-14T17:02:11.792Z,100107.94
2022-09-14T17:04:40.948Z,100104.72
2022-09-14T17:07:10.039Z,100098.16
2022-09-14T17:09:41.271Z,100102.88
2022-09-14T17:12:09.503Z,100095.28
2022-09-14T17:14:37.719Z,100086.25
2022-09-14T17:17:06.082Z,100088.75
2022-09-14T17:19:35.466Z,100092.88
2022-09-14T17:22:04.648Z,100099.44
2022-09-14T17:24:32.994Z,100109.53
2022-09-14T17:27:02.975Z,100107.88
2022-09-14T17:29:36.943Z,100098.03
2022-09-14T17:32:05.385Z,100105.41
2022-09-14T17:34:33.664Z,100106.44
2022-09-14T17:37:01.963Z,100103.97
2022-09-14T17:39:30.200Z,100106.69
2022-09-14T17:42:00.493Z,100106.94
2022-09-14T17:44:31.904Z,100116.22
2022-09-14T17:47:00.911Z,100124.66
2022-09-14T17:49:34.911Z,100125.75
2022-09-14T17:52:03.792Z,100132.78
2022-09-14T17:54:32.085Z,100131.13
2022-09-14T17:57:00.334Z,100139.78
2022-09-14T17:59:29.979Z,100138.63
2022-09-14T18:01:58.784Z,100139.72
2022-09-14T18:04:27.106Z,100142.94
2022-09-14T18:06:55.340Z,100152.47
2022-09-14T18:09:25.284Z,100144.75
2022-09-14T18:11:57.217Z,100154.53
2022-09-14T18:14:26.173Z,100160.16
2022-09-14T18:16:55.772Z,100172.09
2022-09-14T18:19:23.980Z,100168.44
2022-09-14T18:21:52.957Z,100148.78
2022-09-14T18:24:21.742Z,100156.72
2022-09-14T18:26:52.708Z,100159.13
2022-09-14T18:29:23.259Z,100126.84
2022-09-14T18:32:07.164Z,100168.81
2022-09-14T18:34:35.391Z,100174.31
2022-09-14T18:37:03.655Z,100184.91
2022-09-14T18:39:31.946Z,100190.53
2022-09-14T18:42:00.177Z,100184.97
2022-09-14T18:44:28.732Z,100179.19
2022-09-14T18:46:57.115Z,100186.53
2022-09-14T18:49:27.103Z,100185.69
2022-09-14T18:51:55.293Z,100196.03
2022-09-14T18:54:27.629Z,100201.97
2022-09-14T18:56:56.380Z,100195.59
2022-09-14T18:59:24.677Z,100190.28
2022-09-14T19:01:53.007Z,100206.31
2022-09-14T19:04:21.196Z,100203.81
2022-09-14T19:06:51.139Z,100205.34
2022-09-14T19:09:19.443Z,100207.72
2022-09-14T19:11:47.696Z,100203.34
2022-09-14T19:14:17.542Z,100212.72
2022-09-14T19:16:45.915Z,100221.38
2022-09-14T19:19:17.273Z,100214.25
2022-09-14T19:21:46.096Z,100217.50
2022-09-14T19:24:18.369Z,100227.09
2022-09-14T19:26:48.397Z,100215.97
2022-09-14T19:29:24.720Z,100227.91
2022-09-14T19:31:54.185Z,100207.69
2022-09-14T19:34:25.606Z,100232.09
2022-09-14T19:36:54.916Z,100228.78
2022-09-14T19:39:25.948Z,100233.88
2022-09-14T19:41:54.795Z,100232.91
2022-09-14T19:44:23.597Z,100237.78
2022-09-14T19:46:52.540Z,100247.25
2022-09-14T19:49:22.624Z,100254.00
2022-09-14T19:51:51.233Z,100268.31
2022-09-14T19:54:19.752Z,100264.75
2022-09-14T19:56:49.516Z,100265.47
2022-09-14T19:59:17.868Z,100272.66
2022-09-14T20:01:46.713Z,100284.03
2022-09-14T20:04:15.795Z,100290.78
2022-09-14T20:06:46.240Z,100294.34
2022-09-14T20:09:16.582Z,100299.53
2022-09-14T20:11:46.582Z,100311.50
2022-09-14T20:14:18.102Z,100316.94
2022-09-14T20:16:48.656Z,100316.94
2022-09-14T20:19:18.392Z,100315.75
2022-09-14T20:21:48.214Z,100314.56
2022-09-14T20:24:19.594Z,100312.56
2022-09-14T20:26:52.174Z,100327.69
2022-09-14T20:29:23.996Z,100324.53
2022-09-14T20:31:58.198Z,100342.06
2022-09-14T20:34:27.240Z,100351.84
2022-09-14T20:36:56.096Z,100376.00
2022-09-14T20:39:25.665Z,100384.00
2022-09-14T20:41:54.479Z,100396.84
2022-09-14T20:44:24.264Z,100393.56
2022-09-14T20:46:52.750Z,100408.09
2022-09-14T20:49:22.918Z,100420.50
2022-09-14T20:51:52.757Z,100404.34
2022-09-14T20:54:21.488Z,100435.28
2022-09-14T20:56:49.716Z,100433.69
2022-09-14T20:59:19.840Z,100406.88
2022-09-14T21:01:50.933Z,100443.56
2022-09-14T21:04:21.161Z,100439.03
2022-09-14T21:06:52.559Z,100438.03
2022-09-14T21:09:22.009Z,100459.81
2022-09-14T21:11:50.317Z,100459.91
2022-09-14T21:14:20.835Z,100427.00
2022-09-14T21:16:55.155Z,100454.34
2022-09-14T21:19:25.141Z,100466.03
2022-09-14T21:21:53.730Z,100465.00
2022-09-14T21:24:23.446Z,100474.41
2022-09-14T21:26:52.125Z,100480.75
2022-09-14T21:29:23.921Z,100458.50
2022-09-14T21:31:54.385Z,100497.09
2022-09-14T21:34:22.968Z,100511.94
2022-09-14T21:36:52.594Z,100507.13
2022-09-14T21:39:23.304Z,100513.59
2022-09-14T21:41:58.097Z,100502.13
2022-09-14T21:44:30.839Z,100505.88
2022-09-14T21:47:00.740Z,100514.88
2022-09-14T21:49:29.374Z,100515.72
2022-09-14T21:51:57.663Z,100514.44
2022-09-14T21:54:26.219Z,100514.84
2022-09-14T21:56:54.882Z,100514.41
2022-09-14T21:59:24.196Z,100511.69
2022-09-14T22:01:52.925Z,100507.72
2022-09-14T22:04:25.205Z,100462.84
2022-09-14T22:06:54.081Z,100485.28
2022-09-14T22:09:24.789Z,100492.16
2022-09-14T22:11:53.814Z,100488.19
2022-09-14T22:14:24.430Z,100486.91
2022-09-14T22:16:52.958Z,100498.66
2022-09-14T22:19:24.458Z,100488.59
2022-09-14T22:21:53.322Z,100485.69
2022-09-14T22:24:23.711Z,100490.88
2022-09-14T22:26:51.963Z,100364.78
2022-09-14T22:29:22.309Z,100490.06
2022-09-14T22:31:50.781Z,100479.41
2022-09-14T22:34:19.256Z,100477.09
2022-09-14T22:36:49.139Z,100470.81
2022-09-14T22:39:17.468Z,100475.66
2022-09-14T22:41:45.785Z,100475.47
2022-09-14T22:44:14.331Z,100478.19
2022-09-14T22:46:43.310Z,100472.38
2022-09-14T22:49:11.992Z,100475.09
2022-09-14T22:51:40.961Z,100485.13
2022-09-14T22:54:10.631Z,100493.88
2022-09-14T22:56:40.305Z,100504.31
2022-09-14T22:59:10.583Z,100515.19
2022-09-14T23:01:41.911Z,100510.78
2022-09-14T23:04:12.943Z,100507.25
2022-09-14T23:06:43.616Z,100472.06
2022-09-14T23:09:16.885Z,100499.16
2022-09-14T23:11:45.776Z,100498.53
2022-09-14T23:14:14.634Z,100488.09
2022-09-14T23:16:45.021Z,100496.25
2022-09-14T23:19:16.627Z,100496.25
2022-09-14T23:21:45.273Z,100496.69
2022-09-14T23:24:15.030Z,100491.47
2022-09-14T23:26:43.290Z,100490.63
2022-09-14T23:29:15.883Z,100491.69
2022-09-14T23:31:44.526Z,100500.28
2022-09-14T23:34:12.751Z,100500.69
2022-09-14T23:36:41.167Z,100497.38
2022-09-14T23:39:09.424Z,100489.28
2022-09-14T23:41:40.089Z,100476.97
2022-09-14T23:44:08.395Z,100476.56
2022-09-14T23:46:36.752Z,100479.50
2022-09-14T23:49:05.131Z,100485.34
2022-09-14T23:51:33.500Z,100486.63
2022-09-14T23:54:01.740Z,100484.94
2022-09-14T23:56:30.188Z,100487.88
2022-09-14T23:59:00.292Z,100492.47
